sensor_id;sensor_type;location;lat;lon;timestamp;pressure;altitude;pressure_sealevel;temperature;humidity
72116;BME280;59991;52.140;5.428;2022-09-17T00:00:31;101342.16;;;11.32;78.67
72116;BME280;59991;52.140;5.428;2022-09-17T00:01:03;101342.16;;;11.32;79.30
72116;BME280;59991;52.140;5.428;2022-09-17T00:01:35;101339.81;;;11.30;79.08
72116;BME280;59991;52.140;5.428;2022-09-17T00:02:06;101332.75;;;11.29;78.54
72116;BME280;59991;52.140;5.428;2022-09-17T00:02:38;101329.97;;;11.26;78.64
72116;BME280;59991;52.140;5.428;2022-09-17T00:03:10;101339.00;;;11.30;78.16
72116;BME280;59991;52.140;5.428;2022-09-17T00:03:41;101343.31;;;11.31;78.62
72116;BME280;59991;52.140;5.428;2022-09-17T00:04:13;101343.31;;;11.31;78.72
72116;BME280;59991;52.140;5.428;2022-09-17T00:04:46;101344.47;;;11.30;78.97
72116;BME280;59991;52.140;5.428;2022-09-17T00:05:18;101345.63;;;11.29;78.80
72116;BME280;59991;52.140;5.428;2022-09-17T00:05:57;101346.06;;;11.31;79.16
72116;BME280;59991;52.140;5.428;2022-09-17T00:06:31;101350.66;;;11.27;78.95
72116;BME280;59991;52.140;5.428;2022-09-17T00:07:03;101350.31;;;11.28;78.87
72116;BME280;59991;52.140;5.428;2022-09-17T00:07:34;101342.06;;;11.25;78.74
72116;BME280;59991;52.140;5.428;2022-09-17T00:08:08;101345.22;;;11.27;79.06
72116;BME280;59991;52.140;5.428;2022-09-17T00:08:40;101350.66;;;11.27;78.94
72116;BME280;59991;52.140;5.428;2022-09-17T00:09:12;101343.22;;;11.24;79.09
72116;BME280;59991;52.140;5.428;2022-09-17T00:09:43;101346.72;;;11.24;79.02
72116;BME280;59991;52.140;5.428;2022-09-17T00:10:15;101354.56;;;11.26;79.25
72116;BME280;59991;52.140;5.428;2022-09-17T00:10:47;101352.59;;;11.26;78.85
72116;BME280;59991;52.140;5.428;2022-09-17T00:11:21;101354.56;;;11.26;79.29
72116;BME280;59991;52.140;5.428;2022-09-17T00:11:53;101354.91;;;11.24;79.25
72116;BME280;59991;52.140;5.428;2022-09-17T00:12:24;101353.34;;;11.23;79.02
72116;BME280;59991;52.140;5.428;2022-09-17T00:12:55;101358.44;;;11.25;79.18
72116;BME280;59991;52.140;5.428;2022-09-17T00:13:27;101352.97;;;11.25;79.04
72116;BME280;59991;52.140;5.428;2022-09-17T00:14:00;101357.22;;;11.22;79.12
72116;BME280;59991;52.140;5.428;2022-09-17T00:14:32;101358.44;;;11.25;79.51
72116;BME280;59991;52.140;5.428;2022-09-17T00:15:03;101352.56;;;11.23;79.31
72116;BME280;59991;52.140;5.428;2022-09-17T00:15:45;101353.72;;;11.22;79.29
72116;BME280;59991;52.140;5.428;2022-09-17T00:16:27;101363.91;;;11.25;79.73
72116;BME280;59991;52.140;5.428;2022-09-17T00:16:59;101349.47;;;11.24;79.09
72116;BME280;59991;52.140;5.428;2022-09-17T00:17:32;101357.66;;;11.24;79.23
72116;BME280;59991;52.140;5.428;2022-09-17T00:18:03;101349.41;;;11.21;79.23
72116;BME280;59991;52.140;5.428;2022-09-17T00:18:35;101347.09;;;11.23;79.15
72116;BME280;59991;52.140;5.428;2022-09-17T00:19:21;101351.41;;;11.24;79.59
72116;BME280;59991;52.140;5.428;2022-09-17T00:19:53;101352.97;;;11.25;79.67
72116;BME280;59991;52.140;5.428;2022-09-17T00:20:25;101352.59;;;11.26;78.88
72116;BME280;59991;52.140;5.428;2022-09-17T00:20:57;101347.94;;;11.27;79.10
72116;BME280;59991;52.140;5.428;2022-09-17T00:21:28;101344.78;;;11.25;79.34
72116;BME280;59991;52.140;5.428;2022-09-17T00:22:00;101351.47;;;11.27;79.39
72116;BME280;59991;52.140;5.428;2022-09-17T00:22:31;101349.88;;;11.26;79.24
72116;BME280;59991;52.140;5.428;2022-09-17T00:23:03;101345.94;;;11.24;79.46
72116;BME280;59991;52.140;5.428;2022-09-17T00:23:34;101344.38;;;11.23;79.11
72116;BME280;59991;52.140;5.428;2022-09-17T00:24:06;101351.41;;;11.24;79.37
72116;BME280;59991;52.140;5.428;2022-09-17T00:24:37;101347.47;;;11.21;79.41
72116;BME280;59991;52.140;5.428;2022-09-17T00:25:09;101343.56;;;11.22;78.90
72116;BME280;59991;52.140;5.428;2022-09-17T00:25:42;101345.16;;;11.23;78.95
72116;BME280;59991;52.140;5.428;2022-09-17T00:26:14;101349.47;;;11.24;79.00
72116;BME280;59991;52.140;5.428;2022-09-17T00:26:46;101349.03;;;11.22;78.98
72116;BME280;59991;52.140;5.428;2022-09-17T00:27:18;101347.53;;;11.25;79.37
72116;BME280;59991;52.140;5.428;2022-09-17T00:27:49;101347.88;;;11.23;78.90
72116;BME280;59991;52.140;5.428;2022-09-17T00:28:20;101353.75;;;11.25;79.23
72116;BME280;59991;52.140;5.428;2022-09-17T00:28:54;101351.47;;;11.27;79.41
72116;BME280;59991;52.140;5.428;2022-09-17T00:29:25;101361.59;;;11.27;79.19
72116;BME280;59991;52.140;5.428;2022-09-17T00:29:57;101352.19;;;11.24;79.40
72116;BME280;59991;52.140;5.428;2022-09-17T00:30:29;101359.66;;;11.27;79.18
72116;BME280;59991;52.140;5.428;2022-09-17T00:31:05;101356.91;;;11.27;79.42
72116;BME280;59991;52.140;5.428;2022-09-17T00:31:36;101363.16;;;11.28;79.01
72116;BME280;59991;52.140;5.428;2022-09-17T00:32:08;101355.72;;;11.25;79.60
72116;BME280;59991;52.140;5.428;2022-09-17T00:32:39;101356.91;;;11.27;79.60
72116;BME280;59991;52.140;5.428;2022-09-17T00:33:13;101359.28;;;11.29;79.84
72116;BME280;59991;52.140;5.428;2022-09-17T00:33:45;101354.97;;;11.28;79.59
72116;BME280;59991;52.140;5.428;2022-09-17T00:34:17;101358.06;;;11.26;79.55
72116;BME280;59991;52.140;5.428;2022-09-17T00:34:49;101355.28;;;11.23;79.72
72116;BME280;59991;52.140;5.428;2022-09-17T00:35:23;101360.00;;;11.26;79.61
72116;BME280;59991;52.140;5.428;2022-09-17T00:36:01;101357.66;;;11.24;79.51
72116;BME280;59991;52.140;5.428;2022-09-17T00:36:35;101359.22;;;11.25;79.04
72116;BME280;59991;52.140;5.428;2022-09-17T00:37:06;101369.34;;;11.25;79.19
72116;BME280;59991;52.140;5.428;2022-09-17T00:37:37;101368.16;;;11.22;79.16
72116;BME280;59991;52.140;5.428;2022-09-17T00:38:10;101366.19;;;11.23;79.10
72116;BME280;59991;52.140;5.428;2022-09-17T00:38:41;101364.22;;;11.20;78.95
72116;BME280;59991;52.140;5.428;2022-09-17T00:39:13;101361.13;;;11.21;79.18
72116;BME280;59991;52.140;5.428;2022-09-17T00:39:46;101362.22;;;11.17;78.93
72116;BME280;59991;52.140;5.428;2022-09-17T00:40:18;101365.00;;;11.20;78.62
72116;BME280;59991;52.140;5.428;2022-09-17T00:40:50;101366.94;;;11.20;78.87
72116;BME280;59991;52.140;5.428;2022-09-17T00:41:24;101364.56;;;11.18;78.56
72116;BME280;59991;52.140;5.428;2022-09-17T00:41:56;101366.50;;;11.18;78.25
72116;BME280;59991;52.140;5.428;2022-09-17T00:42:27;101369.25;;;11.18;78.14
72116;BME280;59991;52.140;5.428;2022-09-17T00:42:58;101359.88;;;11.15;78.63
72116;BME280;59991;52.140;5.428;2022-09-17T00:43:45;101367.31;;;11.18;78.55
72116;BME280;59991;52.140;5.428;2022-09-17T00:44:52;101369.66;;;11.20;78.25
72116;BME280;59991;52.140;5.428;2022-09-17T00:45:25;101368.50;;;11.21;78.44
72116;BME280;59991;52.140;5.428;2022-09-17T00:45:56;101365.00;;;11.20;78.87
72116;BME280;59991;52.140;5.428;2022-09-17T00:46:42;101367.31;;;11.18;78.57
72116;BME280;59991;52.140;5.428;2022-09-17T00:47:21;101371.97;;;11.18;78.76
72116;BME280;59991;52.140;5.428;2022-09-17T00:48:01;101364.56;;;11.18;78.75
72116;BME280;59991;52.140;5.428;2022-09-17T00:48:34;101370.03;;;11.18;78.94
72116;BME280;59991;52.140;5.428;2022-09-17T00:49:10;101364.56;;;11.18;78.94
72116;BME280;59991;52.140;5.428;2022-09-17T00:49:43;101369.25;;;11.18;79.48
72116;BME280;59991;52.140;5.428;2022-09-17T00:50:39;101373.13;;;11.17;79.06
72116;BME280;59991;52.140;5.428;2022-09-17T00:51:14;101368.44;;;11.14;78.94
72116;BME280;59991;52.140;5.428;2022-09-17T00:51:56;101374.69;;;11.14;79.17
72116;BME280;59991;52.140;5.428;2022-09-17T00:52:41;101372.72;;;11.15;78.63
72116;BME280;59991;52.140;5.428;2022-09-17T00:53:16;101373.88;;;11.14;78.71
72116;BME280;59991;52.140;5.428;2022-09-17T00:53:49;101374.69;;;11.14;78.86
72116;BME280;59991;52.140;5.428;2022-09-17T00:54:20;101374.69;;;11.14;79.10
72116;BME280;59991;52.140;5.428;2022-09-17T00:54:57;101379.78;;;11.16;78.99
72116;BME280;59991;52.140;5.428;2022-09-17T00:55:33;101375.06;;;11.16;79.46
72116;BME280;59991;52.140;5.428;2022-09-17T00:56:13;101366.84;;;11.13;79.68
72116;BME280;59991;52.140;5.428;2022-09-17T00:56:50;101375.47;;;11.15;79.29
72116;BME280;59991;52.140;5.428;2022-09-17T00:57:22;101377.78;;;11.13;78.89
72116;BME280;59991;52.140;5.428;2022-09-17T00:57:56;101370.31;;;11.10;78.86
72116;BME280;59991;52.140;5.428;2022-09-17T00:58:30;101371.88;;;11.11;79.01
72116;BME280;59991;52.140;5.428;2022-09-17T00:59:03;101378.50;;;11.10;79.33
72116;BME280;59991;52.140;5.428;2022-09-17T00:59:35;101380.06;;;11.11;79.60
72116;BME280;59991;52.140;5.428;2022-09-17T01:00:07;101378.50;;;11.10;79.34
72116;BME280;59991;52.140;5.428;2022-09-17T01:00:40;101382.81;;;11.11;79.61
72116;BME280;59991;52.140;5.428;2022-09-17T01:01:11;101374.97;;;11.09;79.30
72116;BME280;59991;52.140;5.428;2022-09-17T01:01:44;101376.13;;;11.08;79.24
72116;BME280;59991;52.140;5.428;2022-09-17T01:02:17;101370.25;;;11.06;79.27
72116;BME280;59991;52.140;5.428;2022-09-17T01:02:50;101376.13;;;11.08;79.35
72116;BME280;59991;52.140;5.428;2022-09-17T01:03:23;101368.75;;;11.08;79.54
72116;BME280;59991;52.140;5.428;2022-09-17T01:03:54;101369.53;;;11.09;79.27
72116;BME280;59991;52.140;5.428;2022-09-17T01:04:26;101380.44;;;11.09;79.39
72116;BME280;59991;52.140;5.428;2022-09-17T01:04:57;101379.22;;;11.06;79.16
72116;BME280;59991;52.140;5.428;2022-09-17T01:06:14;101387.06;;;11.08;79.14
72116;BME280;59991;52.140;5.428;2022-09-17T01:08:51;101375.66;;;11.02;78.99
72116;BME280;59991;52.140;5.428;2022-09-17T01:09:44;101372.13;;;11.02;79.02
72116;BME280;59991;52.140;5.428;2022-09-17T01:12:14;101365.81;;;10.98;79.37
72116;BME280;59991;52.140;5.428;2022-09-17T01:15:40;101370.50;;;10.97;78.80
72116;BME280;59991;52.140;5.428;2022-09-17T01:17:16;101369.34;;;10.98;78.76
72116;BME280;59991;52.140;5.428;2022-09-17T01:18:01;101373.66;;;10.99;78.56
72116;BME280;59991;52.140;5.428;2022-09-17T01:21:40;101376.72;;;10.94;78.87
72116;BME280;59991;52.140;5.428;2022-09-17T01:24:20;101381.69;;;10.89;78.99
72116;BME280;59991;52.140;5.428;2022-09-17T01:30:19;101380.41;;;10.83;79.25
72116;BME280;59991;52.140;5.428;2022-09-17T01:32:13;101382.34;;;10.82;78.86
72116;BME280;59991;52.140;5.428;2022-09-17T01:33:01;101379.63;;;10.82;78.83
72116;BME280;59991;52.140;5.428;2022-09-17T01:33:44;101379.97;;;10.81;78.85
72116;BME280;59991;52.140;5.428;2022-09-17T01:34:24;101389.75;;;10.82;79.06
72116;BME280;59991;52.140;5.428;2022-09-17T01:35:09;101388.97;;;10.81;79.08
72116;BME280;59991;52.140;5.428;2022-09-17T01:35:51;101388.16;;;10.81;78.62
72116;BME280;59991;52.140;5.428;2022-09-17T01:37:33;101388.53;;;10.79;78.32
72116;BME280;59991;52.140;5.428;2022-09-17T01:38:21;101387.75;;;10.79;78.52
72116;BME280;59991;52.140;5.428;2022-09-17T01:39:05;101383.06;;;10.79;78.40
72116;BME280;59991;52.140;5.428;2022-09-17T01:39:57;101390.47;;;10.79;77.84
72116;BME280;59991;52.140;5.428;2022-09-17T01:40:40;101391.25;;;10.79;77.53
72116;BME280;59991;52.140;5.428;2022-09-17T01:42:24;101392.47;;;10.82;78.31
72116;BME280;59991;52.140;5.428;2022-09-17T01:43:03;101388.97;;;10.81;77.88
72116;BME280;59991;52.140;5.428;2022-09-17T01:43:42;101391.69;;;10.81;77.97
72116;BME280;59991;52.140;5.428;2022-09-17T01:44:49;101390.09;;;10.80;77.42
72116;BME280;59991;52.140;5.428;2022-09-17T01:45:21;101393.63;;;10.81;77.60
72116;BME280;59991;52.140;5.428;2022-09-17T01:46:00;101390.09;;;10.80;77.32
72116;BME280;59991;52.140;5.428;2022-09-17T01:46:52;101396.00;;;10.82;77.51
72116;BME280;59991;52.140;5.428;2022-09-17T01:47:32;101395.19;;;10.82;77.53
72116;BME280;59991;52.140;5.428;2022-09-17T01:48:32;101394.84;;;10.83;77.09
72116;BME280;59991;52.140;5.428;2022-09-17T01:49:06;101390.53;;;10.82;76.95
72116;BME280;59991;52.140;5.428;2022-09-17T01:49:39;101403.03;;;10.83;77.12
72116;BME280;59991;52.140;5.428;2022-09-17T01:50:15;101394.06;;;10.83;77.20
72116;BME280;59991;52.140;5.428;2022-09-17T01:50:52;101391.31;;;10.83;76.97
72116;BME280;59991;52.140;5.428;2022-09-17T01:51:28;101394.06;;;10.83;76.72
72116;BME280;59991;52.140;5.428;2022-09-17T01:52:00;101398.72;;;10.82;76.75
72116;BME280;59991;52.140;5.428;2022-09-17T01:52:35;101394.84;;;10.83;76.67
72116;BME280;59991;52.140;5.428;2022-09-17T01:53:09;101394.84;;;10.83;76.80
72116;BME280;59991;52.140;5.428;2022-09-17T01:54:04;101398.00;;;10.85;76.35
72116;BME280;59991;52.140;5.428;2022-09-17T01:54:42;101398.78;;;10.86;76.22
72116;BME280;59991;52.140;5.428;2022-09-17T01:55:16;101405.03;;;10.86;75.88
72116;BME280;59991;52.140;5.428;2022-09-17T01:55:51;101401.94;;;10.88;76.25
72116;BME280;59991;52.140;5.428;2022-09-17T01:56:30;101391.03;;;10.88;75.76
72116;BME280;59991;52.140;5.428;2022-09-17T01:57:08;101390.22;;;10.87;75.54
72116;BME280;59991;52.140;5.428;2022-09-17T01:57:57;101393.75;;;10.88;75.13
72116;BME280;59991;52.140;5.428;2022-09-17T01:58:32;101390.22;;;10.87;74.69
72116;BME280;59991;52.140;5.428;2022-09-17T01:59:12;101397.28;;;10.88;74.32
72116;BME280;59991;52.140;5.428;2022-09-17T02:00:06;101396.13;;;10.89;74.56
72116;BME280;59991;52.140;5.428;2022-09-17T02:00:41;101389.09;;;10.88;74.65
72116;BME280;59991;52.140;5.428;2022-09-17T02:01:18;101386.78;;;10.90;74.79
72116;BME280;59991;52.140;5.428;2022-09-17T02:01:55;101391.09;;;10.91;74.38
72116;BME280;59991;52.140;5.428;2022-09-17T02:02:37;101391.88;;;10.92;74.79
72116;BME280;59991;52.140;5.428;2022-09-17T02:03:21;101391.88;;;10.92;74.75
72116;BME280;59991;52.140;5.428;2022-09-17T02:04:03;101398.13;;;10.92;74.13
72116;BME280;59991;52.140;5.428;2022-09-17T02:04:45;101397.34;;;10.92;74.13
72116;BME280;59991;52.140;5.428;2022-09-17T02:05:27;101392.66;;;10.92;74.48
72116;BME280;59991;52.140;5.428;2022-09-17T02:06:12;101400.84;;;10.92;75.05
72116;BME280;59991;52.140;5.428;2022-09-17T02:06:54;101395.75;;;10.91;74.55
72116;BME280;59991;52.140;5.428;2022-09-17T02:07:30;101399.28;;;10.91;75.07
72116;BME280;59991;52.140;5.428;2022-09-17T02:08:07;101401.22;;;10.91;74.47
72116;BME280;59991;52.140;5.428;2022-09-17T02:08:49;101396.91;;;10.90;74.34
72116;BME280;59991;52.140;5.428;2022-09-17T02:09:26;101406.31;;;10.92;74.34
72116;BME280;59991;52.140;5.428;2022-09-17T02:10:06;101407.88;;;10.93;74.83
72116;BME280;59991;52.140;5.428;2022-09-17T02:10:43;101404.72;;;10.91;75.33
72116;BME280;59991;52.140;5.428;2022-09-17T02:11:15;101406.66;;;10.91;74.58
72116;BME280;59991;52.140;5.428;2022-09-17T02:11:51;101398.78;;;10.86;74.54
72116;BME280;59991;52.140;5.428;2022-09-17T02:12:39;101405.88;;;10.90;74.27
72116;BME280;59991;52.140;5.428;2022-09-17T02:13:20;101409.75;;;10.89;74.33
72116;BME280;59991;52.140;5.428;2022-09-17T02:14:13;101405.44;;;10.88;74.62
72116;BME280;59991;52.140;5.428;2022-09-17T02:14:50;101410.13;;;10.88;74.97
72116;BME280;59991;52.140;5.428;2022-09-17T02:15:27;101409.28;;;10.84;74.98
72116;BME280;59991;52.140;5.428;2022-09-17T02:16:05;101400.72;;;10.85;74.31
72116;BME280;59991;52.140;5.428;2022-09-17T02:16:42;101409.69;;;10.86;75.04
72116;BME280;59991;52.140;5.428;2022-09-17T02:17:23;101399.16;;;10.84;75.26
72116;BME280;59991;52.140;5.428;2022-09-17T02:18:23;101407.41;;;10.88;75.21
72116;BME280;59991;52.140;5.428;2022-09-17T02:19:02;101405.81;;;10.87;74.92
72116;BME280;59991;52.140;5.428;2022-09-17T02:19:38;101406.59;;;10.87;75.41
72116;BME280;59991;52.140;5.428;2022-09-17T02:20:11;101409.28;;;10.84;75.42
72116;BME280;59991;52.140;5.428;2022-09-17T02:20:51;101406.59;;;10.87;75.46
72116;BME280;59991;52.140;5.428;2022-09-17T02:21:45;101409.34;;;10.87;75.34
72116;BME280;59991;52.140;5.428;2022-09-17T02:22:21;101408.53;;;10.87;75.66
72116;BME280;59991;52.140;5.428;2022-09-17T02:22:57;101403.44;;;10.85;74.74
72116;BME280;59991;52.140;5.428;2022-09-17T02:23:34;101402.22;;;10.83;74.68
72116;BME280;59991;52.140;5.428;2022-09-17T02:24:20;101405.75;;;10.83;74.65
72116;BME280;59991;52.140;5.428;2022-09-17T02:25:01;101400.66;;;10.82;74.76
72116;BME280;59991;52.140;5.428;2022-09-17T02:25:45;101400.22;;;10.80;74.41
72116;BME280;59991;52.140;5.428;2022-09-17T02:26:19;101395.53;;;10.77;75.15
72116;BME280;59991;52.140;5.428;2022-09-17T02:27:13;101407.63;;;10.79;74.71
72116;BME280;59991;52.140;5.428;2022-09-17T02:28:40;101404.91;;;10.79;75.16
72116;BME280;59991;52.140;5.428;2022-09-17T02:29:20;101408.00;;;10.78;74.48
72116;BME280;59991;52.140;5.428;2022-09-17T02:29:54;101399.03;;;10.77;74.67
72116;BME280;59991;52.140;5.428;2022-09-17T02:30:26;101398.25;;;10.77;74.30
72116;BME280;59991;52.140;5.428;2022-09-17T02:30:57;101396.31;;;10.77;74.44
72116;BME280;59991;52.140;5.428;2022-09-17T02:31:29;101391.22;;;10.76;74.68
72116;BME280;59991;52.140;5.428;2022-09-17T02:32:01;101400.22;;;10.80;74.99
72116;BME280;59991;52.140;5.428;2022-09-17T02:32:33;101404.53;;;10.81;75.17
72116;BME280;59991;52.140;5.428;2022-09-17T02:33:06;101405.31;;;10.81;75.07
72116;BME280;59991;52.140;5.428;2022-09-17T02:33:41;101395.13;;;10.78;75.26
72116;BME280;59991;52.140;5.428;2022-09-17T02:34:13;101401.38;;;10.79;74.71
72116;BME280;59991;52.140;5.428;2022-09-17T02:34:45;101403.72;;;10.77;74.46
72116;BME280;59991;52.140;5.428;2022-09-17T02:35:17;101395.09;;;10.75;74.58
72116;BME280;59991;52.140;5.428;2022-09-17T02:35:50;101400.19;;;10.76;74.90
72116;BME280;59991;52.140;5.428;2022-09-17T02:36:21;101402.94;;;10.76;74.84
72116;BME280;59991;52.140;5.428;2022-09-17T02:36:56;101395.13;;;10.78;74.93
72116;BME280;59991;52.140;5.428;2022-09-17T02:37:29;101399.81;;;10.78;75.11
72116;BME280;59991;52.140;5.428;2022-09-17T02:38:00;101392.75;;;10.73;75.67
72116;BME280;59991;52.140;5.428;2022-09-17T02:38:32;101402.13;;;10.76;75.64
72116;BME280;59991;52.140;5.428;2022-09-17T02:39:04;101403.28;;;10.75;75.80
72116;BME280;59991;52.140;5.428;2022-09-17T02:39:35;101407.59;;;10.76;75.30
72116;BME280;59991;52.140;5.428;2022-09-17T02:40:08;101407.16;;;10.73;75.80
72116;BME280;59991;52.140;5.428;2022-09-17T02:40:49;101399.34;;;10.72;75.97
72116;BME280;59991;52.140;5.428;2022-09-17T02:41:31;101407.09;;;10.70;76.20
72116;BME280;59991;52.140;5.428;2022-09-17T02:43:33;101408.25;;;10.69;75.59
72116;BME280;59991;52.140;5.428;2022-09-17T02:45:06;101407.09;;;10.70;75.88
72116;BME280;59991;52.140;5.428;2022-09-17T02:46:51;101407.81;;;10.67;75.97
72116;BME280;59991;52.140;5.428;2022-09-17T02:47:36;101410.13;;;10.65;75.59
72116;BME280;59991;52.140;5.428;2022-09-17T02:48:19;101412.06;;;10.64;75.81
72116;BME280;59991;52.140;5.428;2022-09-17T02:49:02;101409.34;;;10.64;76.00
72116;BME280;59991;52.140;5.428;2022-09-17T02:50:17;101410.47;;;10.63;75.54
72116;BME280;59991;52.140;5.428;2022-09-17T02:51:52;101417.50;;;10.64;75.97
72116;BME280;59991;52.140;5.428;2022-09-17T02:52:44;101418.31;;;10.65;76.34
72116;BME280;59991;52.140;5.428;2022-09-17T02:54:31;101408.53;;;10.64;76.36
72116;BME280;59991;52.140;5.428;2022-09-17T02:54:46;101411.28;;;10.64;76.33
72116;BME280;59991;52.140;5.428;2022-09-17T02:55:38;101416.28;;;10.62;76.26
72116;BME280;59991;52.140;5.428;2022-09-17T02:56:26;101418.59;;;10.60;76.74
72116;BME280;59991;52.140;5.428;2022-09-17T02:58:20;101422.47;;;10.59;76.65
72116;BME280;59991;52.140;5.428;2022-09-17T02:59:00;101419.75;;;10.59;76.87
72116;BME280;59991;52.140;5.428;2022-09-17T02:59:49;101415.75;;;10.53;76.59
72116;BME280;59991;52.140;5.428;2022-09-17T03:00:23;101416.19;;;10.55;76.61
72116;BME280;59991;52.140;5.428;2022-09-17T03:01:01;101420.44;;;10.52;76.50
72116;BME280;59991;52.140;5.428;2022-09-17T03:01:40;101422.44;;;10.55;76.84
72116;BME280;59991;52.140;5.428;2022-09-17T03:03:20;101422.38;;;10.52;76.61
72116;BME280;59991;52.140;5.428;2022-09-17T03:03:55;101418.84;;;10.51;76.64
72116;BME280;59991;52.140;5.428;2022-09-17T03:04:29;101419.22;;;10.50;76.26
72116;BME280;59991;52.140;5.428;2022-09-17T03:05:03;101421.16;;;10.49;76.41
72116;BME280;59991;52.140;5.428;2022-09-17T03:05:35;101423.44;;;10.47;76.45
72116;BME280;59991;52.140;5.428;2022-09-17T03:06:08;101421.88;;;10.46;76.73
72116;BME280;59991;52.140;5.428;2022-09-17T03:06:41;101423.09;;;10.49;76.39
72116;BME280;59991;52.140;5.428;2022-09-17T03:07:13;101428.09;;;10.47;76.49
72116;BME280;59991;52.140;5.428;2022-09-17T03:07:44;101429.69;;;10.48;76.20
72116;BME280;59991;52.140;5.428;2022-09-17T03:08:16;101425.38;;;10.47;76.49
72116;BME280;59991;52.140;5.428;2022-09-17T03:08:52;101429.69;;;10.48;76.51
72116;BME280;59991;52.140;5.428;2022-09-17T03:09:24;101424.94;;;10.45;76.64
72116;BME280;59991;52.140;5.428;2022-09-17T03:09:55;101428.81;;;10.44;76.91
72116;BME280;59991;52.140;5.428;2022-09-17T03:10:27;101427.31;;;10.46;76.94
72116;BME280;59991;52.140;5.428;2022-09-17T03:11:00;101429.69;;;10.48;77.07
72116;BME280;59991;52.140;5.428;2022-09-17T03:11:32;101424.94;;;10.45;77.42
72116;BME280;59991;52.140;5.428;2022-09-17T03:12:04;101430.75;;;10.43;77.47
72116;BME280;59991;52.140;5.428;2022-09-17T03:12:35;101424.94;;;10.45;77.32
72116;BME280;59991;52.140;5.428;2022-09-17T03:13:07;101426.47;;;10.42;76.81
72116;BME280;59991;52.140;5.428;2022-09-17T03:13:38;101426.03;;;10.40;76.64
72116;BME280;59991;52.140;5.428;2022-09-17T03:14:10;101428.41;;;10.42;76.90
72116;BME280;59991;52.140;5.428;2022-09-17T03:14:41;101432.69;;;10.43;77.10
72116;BME280;59991;52.140;5.428;2022-09-17T03:15:12;101418.25;;;10.38;77.08
72116;BME280;59991;52.140;5.428;2022-09-17T03:15:44;101429.53;;;10.41;77.00
72116;BME280;59991;52.140;5.428;2022-09-17T03:16:15;101425.66;;;10.42;77.09
72116;BME280;59991;52.140;5.428;2022-09-17T03:16:47;101426.47;;;10.42;77.04
72116;BME280;59991;52.140;5.428;2022-09-17T03:17:18;101421.00;;;10.42;77.25
72116;BME280;59991;52.140;5.428;2022-09-17T03:17:50;101414.72;;;10.38;76.95
72116;BME280;59991;52.140;5.428;2022-09-17T03:18:23;101422.94;;;10.42;77.44
72116;BME280;59991;52.140;5.428;2022-09-17T03:18:55;101417.44;;;10.38;77.44
72116;BME280;59991;52.140;5.428;2022-09-17T03:19:26;101418.63;;;10.41;77.35
72116;BME280;59991;52.140;5.428;2022-09-17T03:19:58;101411.59;;;10.39;77.24
72116;BME280;59991;52.140;5.428;2022-09-17T03:20:29;101419.03;;;10.39;77.00
72116;BME280;59991;52.140;5.428;2022-09-17T03:21:01;101414.72;;;10.38;77.43
72116;BME280;59991;52.140;5.428;2022-09-17T03:21:32;101413.50;;;10.35;77.29
72116;BME280;59991;52.140;5.428;2022-09-17T03:22:03;101414.34;;;10.39;77.63
72116;BME280;59991;52.140;5.428;2022-09-17T03:22:35;101410.78;;;10.35;77.79
72116;BME280;59991;52.140;5.428;2022-09-17T03:23:06;101422.13;;;10.37;77.21
72116;BME280;59991;52.140;5.428;2022-09-17T03:23:37;101410.34;;;10.33;77.47
72116;BME280;59991;52.140;5.428;2022-09-17T03:24:10;101415.44;;;10.35;77.45
72116;BME280;59991;52.140;5.428;2022-09-17T03:24:41;101417.03;;;10.36;77.36
72116;BME280;59991;52.140;5.428;2022-09-17T03:25:13;101413.06;;;10.33;77.13
72116;BME280;59991;52.140;5.428;2022-09-17T03:25:45;101419.38;;;10.37;77.32
72116;BME280;59991;52.140;5.428;2022-09-17T03:26:17;101417.38;;;10.34;77.87
72116;BME280;59991;52.140;5.428;2022-09-17T03:26:49;101417.03;;;10.36;77.92
72116;BME280;59991;52.140;5.428;2022-09-17T03:27:20;101417.81;;;10.36;78.17
72116;BME280;59991;52.140;5.428;2022-09-17T03:27:52;101421.31;;;10.37;78.02
72116;BME280;59991;52.140;5.428;2022-09-17T03:28:23;101413.94;;;10.37;78.46
72116;BME280;59991;52.140;5.428;2022-09-17T03:28:56;101419.75;;;10.36;78.24
72116;BME280;59991;52.140;5.428;2022-09-17T03:29:28;101410.78;;;10.35;78.25
72116;BME280;59991;52.140;5.428;2022-09-17T03:30:00;101420.88;;;10.35;77.94
72116;BME280;59991;52.140;5.428;2022-09-17T03:30:32;101412.72;;;10.35;78.11
72116;BME280;59991;52.140;5.428;2022-09-17T03:31:03;101412.22;;;10.29;78.12
72116;BME280;59991;52.140;5.428;2022-09-17T03:31:36;101412.22;;;10.29;77.99
72116;BME280;59991;52.140;5.428;2022-09-17T03:32:07;101410.63;;;10.28;77.75
72116;BME280;59991;52.140;5.428;2022-09-17T03:32:39;101413.34;;;10.28;78.21
72116;BME280;59991;52.140;5.428;2022-09-17T03:33:11;101417.66;;;10.29;78.28
72116;BME280;59991;52.140;5.428;2022-09-17T03:33:42;101404.31;;;10.24;78.51
72116;BME280;59991;52.140;5.428;2022-09-17T03:34:13;101411.84;;;10.31;78.20
72116;BME280;59991;52.140;5.428;2022-09-17T03:34:45;101412.22;;;10.29;77.82
72116;BME280;59991;52.140;5.428;2022-09-17T03:35:17;101405.97;;;10.29;77.86
72116;BME280;59991;52.140;5.428;2022-09-17T03:35:49;101410.72;;;10.32;77.67
72116;BME280;59991;52.140;5.428;2022-09-17T03:36:20;101403.69;;;10.31;78.31
72116;BME280;59991;52.140;5.428;2022-09-17T03:36:51;101400.09;;;10.27;78.89
72116;BME280;59991;52.140;5.428;2022-09-17T03:37:23;101409.50;;;10.29;78.43
72116;BME280;59991;52.140;5.428;2022-09-17T03:37:54;101401.66;;;10.28;78.76
72116;BME280;59991;52.140;5.428;2022-09-17T03:38:26;101406.84;;;10.33;78.16
72116;BME280;59991;52.140;5.428;2022-09-17T03:38:58;101418.53;;;10.33;78.26